Flight Track Log - Related Links

Times and Time Zones

All times are in EDT time to prevent confusion due to time zone crossing. See the FSR411 flight status page for this flight to view local times or setup timezone preferences in your user account.

Time Position Orientation Groundspeed Altitude Reporting Facility
EDT Latitude Longitude Course Direction KTS MPH feet Rate Location/Type
Mon 04:10:27 PM 39.9758 -88.2736 223° Southwest 219 252 12,000  Level Kansas City Center
Mon 04:11:12 PM 39.9483 -88.3164 230° Southwest 204 235 6,600 -1,121 Descending Chicago Center
Mon 04:12:14 PM 39.8994 -88.3811 225° Southwest 245 282 10,000 2,516 Climbing Chicago Center
Mon 04:13:16 PM 39.8414 -88.4608 227° Southwest 298 343 11,800 960 Climbing Chicago Center
Mon 04:14:19 PM 39.7678 -88.5586 226° Southwest 368 423 12,000 97 Climbing Chicago Center
Mon 04:15:00 PM 39.4945 -88.9874 223° Southwest  Level Estimated
Mon 04:15:20 PM 39.6942 -88.6589 226° Southwest 380 437 12,000  Level Chicago Center
Mon 04:16:22 PM 39.6064 -88.7764 226° Southwest 377 434 12,000  Level Chicago Center
Mon 04:17:24 PM 39.5331 -88.8733 226° Southwest 374 430 12,000  Level Chicago Center
Mon 04:18:27 PM 39.4597 -88.9731 226° Southwest 380 437 12,000  Level Chicago Center
Mon 04:19:29 PM 39.3864 -89.0683 225° Southwest 374 430 12,000  Level Chicago Center
Mon 04:20:31 PM 39.3128 -89.1619 225° Southwest 372 428 12,000 -629 Level Chicago Center
Mon 04:21:33 PM 39.2433 -89.2594 227° Southwest 371 427 10,700 -1,597 Descending Chicago Center
Mon 04:22:35 PM 39.1711 -89.3578 227° Southwest 347 399 8,700 -1,548 Descending Chicago Center
Mon 04:23:37 PM 39.1219 -89.4231 226° Southwest 327 376 7,500 -1,680 Descending Chicago Center
Mon 04:24:40 PM 39.0667 -89.5000 227° Southwest 273 314 5,200 -1,220 Descending Gateway (St. Louis) TRACON
Mon 04:25:40 PM 39.0167 -89.5667 226° Southwest 272 313 5,000 -100 Descending Gateway (St. Louis) TRACON
Mon 04:26:40 PM 38.9667 -89.6333 226° Southwest 265 305 5,000 -200 Level Gateway (St. Louis) TRACON
Mon 04:27:40 PM 38.9000 -89.7000 218° Southwest 261 300 4,600 -500 Descending Gateway (St. Louis) TRACON
Mon 04:28:40 PM 38.8500 -89.7667 226° Southwest 265 305 4,000 -550 Descending Gateway (St. Louis) TRACON
Mon 04:29:40 PM 38.8000 -89.8333 226° Southwest 266 306 3,500 -750 Descending Gateway (St. Louis) TRACON
Mon 04:30:40 PM 38.7500 -89.9000 226° Southwest 255 293 2,500 -496 Descending Gateway (St. Louis) TRACON
Mon 04:31:41 PM 38.7000 -89.9500 218° Southwest 261 300 2,500  Level Gateway (St. Louis) TRACON
Mon 04:32:41 PM 38.6333 -89.9500 180° South 207 238 2,500  Level Gateway (St. Louis) TRACON
Mon 04:33:12 PM 38.6242 -89.9300 120° Southeast 209 241 2,500  Level Kansas City Center
Mon 04:34:14 PM 38.5881 -89.8950 143° Southeast 182 209 2,500  Level Kansas City Center
Mon 04:35:16 PM 38.5542 -89.9406 226° Southwest 181 208 2,500  Level Kansas City Center
Mon 04:36:18 PM 38.5150 -89.9761 215° Southwest 176 203 2,500  Level Kansas City Center
Mon 04:37:20 PM 38.4731 -90.0058 209° Southwest 174 200 2,500 -97 Level Kansas City Center
Mon 04:38:22 PM 38.4811 -90.0497 283° West 170 196 2,300 -484 Descending Kansas City Center
Mon 04:39:24 PM 38.5308 -90.0811 334° Northwest 169 194 1,500 -726 Descending Kansas City Center
Mon 04:40:26 PM 38.5522 -90.1214 304° West 149 171 800 -384 Descending Kansas City Center
Mon 04:41:29 PM 38.5714 -90.1578 304° West 143 165 700 -95 Descending Kansas City Center

Login

Don't have an account? Register now (free) for customized features, flight alerts, and more!